Latest Weather Observations for Camden

IDN60901

Issued at 9:35 pm EST Monday 1 September 2014 (issued every 10 minutes, with the page automatically refreshed every 10 minutes)

About weather observations | Map of Sydney area stations | Latest observations for Sydney area | Other Formats
Station Details ID: 068192 Name: CAMDEN AIRPORT AWS Lat: -34.04 Lon: 150.69 Height: 73.9 m
Data from the previous 72 hours. | See also: Recent months at Camden
Date/Time
EST
Tmp

°C
App
Tmp
°C
Dew
Point
°C
Rel
Hum
%
Delta-T

°C
Wind Press
QNH
hPa
Press
MSL
hPa
Rain
since
9 am
mm
Dir
 
Spd
km/h
Gust
km/h
Spd
kts
Gust
kts
01/09:30pm 15.0 13.8 6.6 57 4.1 WNW 2 7 1 4 1011.1 - 0.0
01/09:00pm 15.0 13.3 5.8 54 4.4 NW 4 7 2 4 1011.2 1011.2 0.0
01/08:30pm 15.5 13.4 6.5 55 4.4 NNW 7 9 4 5 1011.2 - 0.0
01/08:00pm 14.9 12.5 7.0 59 3.9 NNW 9 13 5 7 1011.6 1011.6 0.0
01/07:30pm 15.5 14.5 5.7 52 4.7 CALM 0 4 0 2 1011.5 - 0.0
01/07:00pm 16.8 14.2 6.0 49 5.3 N 9 11 5 6 1011.1 1011.1 0.0
01/06:30pm 17.4 14.1 6.3 48 5.5 NNW 13 15 7 8 1011.0 - 0.0
01/06:00pm 18.4 15.1 6.3 45 6.0 NNW 13 13 7 7 1010.7 1010.7 0.0
01/05:30pm 19.5 15.8 6.3 42 6.6 NNW 15 19 8 10 1010.5 - 0.0
01/05:00pm 20.8 17.7 7.1 41 7.0 N 13 20 7 11 1010.3 1010.3 0.0
01/04:30pm 21.3 17.8 7.2 40 7.3 N 15 19 8 10 1010.1 - 0.0
01/04:00pm 21.9 19.7 7.7 40 7.4 NNE 9 17 5 9 1010.1 1010.1 0.0
01/03:30pm 22.5 19.4 7.1 37 8.0 NE 13 15 7 8 1010.2 - 0.0
01/03:00pm 22.6 19.4 6.8 36 8.1 NE 13 20 7 11 1010.5 1010.5 0.0
01/02:30pm 22.8 18.9 7.0 36 8.2 NE 17 24 9 13 1010.6 - 0.0
01/02:00pm 22.7 19.0 6.5 35 8.3 NNE 15 22 8 12 1011.2 1011.2 0.0
01/01:30pm 21.4 18.0 7.6 41 7.2 NNE 15 19 8 10 1011.8 - 0.0
01/01:00pm 21.7 18.7 7.5 40 7.4 NE 13 19 7 10 1012.3 1012.3 0.0
01/12:30pm 22.0 20.2 7.0 38 7.7 NE 6 11 3 6 1013.0 - 0.0
01/12:00pm 21.2 18.7 8.1 43 6.9 N 11 15 6 8 1013.6 1013.6 0.0
01/11:30am 20.8 19.3 9.1 47 6.2 N 7 11 4 6 1014.1 - 0.0
01/11:00am 19.2 17.1 9.9 55 5.0 ENE 11 13 6 7 1014.5 1014.5 0.0
01/10:30am 18.2 16.4 9.5 57 4.6 ENE 9 13 5 7 1015.0 - 0.0
01/10:00am 15.9 15.4 9.3 65 3.4 NNW 2 6 1 3 1016.1 1016.0 0.0
01/09:30am 14.1 13.4 8.5 69 2.8 NE 2 7 1 4 1016.4 - 0.0
01/09:00am 11.6 11.7 10.0 90 0.8 CALM 0 0 0 0 1017.1 1017.1 0.2
01/08:36am 9.8 9.8 9.7 99 0.1 CALM 0 0 0 0 1017.3 - 0.2
01/08:30am 9.7 9.6 9.6 99 0.1 CALM 0 0 0 0 1017.3 - 0.2
01/08:25am 9.2 9.0 9.1 99 0.0 CALM 0 0 0 0 1017.3 - 0.2
01/08:06am 8.2 7.8 8.1 99 0.0 CALM 0 0 0 0 1017.5 - 0.2
01/08:00am 7.6 7.0 7.5 99 0.0 CALM 0 0 0 0 1017.5 1017.5 0.2
01/07:34am 6.9 6.2 6.8 99 0.0 CALM 0 0 0 0 1017.4 - 0.2
01/07:33am 6.9 6.2 6.8 99 0.0 CALM 0 0 0 0 1017.4 - 0.2
01/07:30am 6.9 6.2 6.8 99 0.0 CALM 0 0 0 0 1017.4 - 0.2
01/07:29am 6.9 6.2 6.8 99 0.0 CALM 0 0 0 0 1017.4 - 0.2
01/07:28am 6.9 6.2 6.8 99 0.0 CALM 0 0 0 0 1017.4 - 0.2
01/07:24am 7.0 6.3 6.9 99 0.0 CALM 0 0 0 0 1017.3 - 0.2
01/07:22am 6.9 6.2 6.8 99 0.0 CALM 0 0 0 0 1017.2 - 0.2
01/07:20am 6.8 6.0 6.7 99 0.0 CALM 0 0 0 0 1017.2 - 0.2
01/07:07am 6.2 5.3 6.1 99 0.0 CALM 0 0 0 0 1017.2 - 0.0
01/07:06am 6.1 5.2 6.0 99 0.0 CALM 0 0 0 0 1017.2 - 0.0
01/07:03am 6.0 5.1 5.9 99 0.0 WSW 0 0 0 0 1017.2 - 0.0
01/07:00am 5.8 4.8 5.7 99 0.0 CALM 0 0 0 0 1017.2 1017.2 0.0
01/06:30am 5.2 4.1 5.1 99 0.0 CALM 0 0 0 0 1016.9 - 0.0
01/06:00am 5.1 4.0 5.0 99 0.0 CALM 0 0 0 0 1016.8 1016.8 0.0
01/05:51am 5.1 4.0 5.0 99 0.0 CALM 0 0 0 0 1016.7 - 0.0
01/05:30am 5.6 4.6 5.5 99 0.0 CALM 0 0 0 0 1016.6 - 0.0
01/05:00am 5.5 4.5 5.4 99 0.0 WSW 0 0 0 0 1016.6 1016.6 0.0
01/04:30am 6.0 5.0 5.7 98 0.1 CALM 0 0 0 0 1016.4 - 0.0
01/04:00am 6.7 5.9 6.4 98 0.1 CALM 0 0 0 0 1016.3 1016.3 0.0
01/03:30am 7.1 6.4 6.8 98 0.1 CALM 0 0 0 0 1016.3 - 0.0
01/03:00am 7.1 6.3 6.7 97 0.2 CALM 0 0 0 0 1016.4 1016.4 0.0
01/02:44am 7.4 6.7 7.0 97 0.2 SE 0 0 0 0 1016.4 - 0.0
01/02:30am 8.2 7.7 7.9 98 0.1 CALM 0 0 0 0 1016.6 - 0.0
01/02:12am 8.4 8.0 8.1 98 0.1 CALM 0 0 0 0 1016.8 - 0.0
01/02:00am 8.7 8.4 8.6 99 0.0 CALM 0 0 0 0 1017.0 1017.0 0.0
01/01:56am 8.8 8.5 8.7 99 0.0 CALM 0 0 0 0 1017.1 - 0.0
01/01:34am 9.0 8.8 8.9 99 0.0 CALM 0 0 0 0 1017.2 - 0.0
01/01:30am 8.9 8.6 8.8 99 0.0 CALM 0 0 0 0 1017.3 - 0.0
01/01:01am 8.1 7.6 7.8 98 0.1 CALM 0 0 0 0 1017.6 - 0.0
01/01:00am 8.1 7.6 7.8 98 0.1 CALM 0 0 0 0 1017.6 1017.6 0.0
01/12:54am 7.9 7.3 7.6 98 0.1 CALM 0 0 0 0 1017.7 - 0.0
01/12:43am 8.2 7.3 7.9 98 0.1 S 2 6 1 3 1017.7 - 0.0
01/12:30am 8.2 6.6 7.9 98 0.1 S 6 6 3 3 1017.7 - 0.0
01/12:29am 8.3 6.7 8.0 98 0.1 S 6 6 3 3 1017.7 - 0.0
01/12:14am 8.2 6.9 7.8 97 0.2 S 4 6 2 3 1017.9 - 0.0
01/12:00am 8.1 6.4 7.5 96 0.3 S 6 7 3 4 1018.0 1018.0 0.0
 
Date/Time
EST
Tmp

°C
App
Tmp
°C
Dew
Point
°C
Rel
Hum
%
Delta-T

°C
Wind Press
QNH
hPa
Press
MSL
hPa
Rain
since
9 am
mm
Dir
 
Spd
km/h
Gust
km/h
Spd
kts
Gust
kts
31/11:30pm 9.0 8.7 8.5 97 0.2 CALM 0 0 0 0 1018.3 - 0.0
31/11:29pm 9.1 8.8 8.6 97 0.2 CALM 0 0 0 0 1018.3 - 0.0
31/11:09pm 9.3 9.0 8.7 96 0.3 CALM 0 0 0 0 1018.5 - 0.0
31/11:08pm 9.2 8.9 8.6 96 0.3 CALM 0 0 0 0 1018.5 - 0.0
31/11:00pm 9.3 9.0 8.8 97 0.2 CALM 0 0 0 0 1018.5 1018.5 0.0
31/10:30pm 9.8 9.6 9.2 96 0.3 CALM 0 0 0 0 1018.4 - 0.0
31/10:14pm 9.7 9.4 8.8 94 0.4 CALM 0 0 0 0 1018.5 - 0.0
31/10:02pm 9.7 9.4 8.6 93 0.5 CALM 0 0 0 0 1018.6 - 0.0
31/10:00pm 9.7 9.4 8.6 93 0.5 CALM 0 0 0 0 1018.6 1018.6 0.0
31/09:30pm 10.2 9.9 8.8 91 0.7 CALM 0 0 0 0 1018.6 - 0.0
31/09:00pm 11.0 10.9 9.6 91 0.7 CALM 0 0 0 0 1018.6 1018.6 0.0
31/08:30pm 11.3 11.1 9.0 86 1.1 CALM 0 0 0 0 1018.6 - 0.0
31/08:00pm 12.2 12.2 9.8 85 1.2 CALM 0 0 0 0 1018.7 1018.7 0.0
31/07:30pm 13.1 12.6 9.4 78 1.9 SSE 2 6 1 3 1018.4 - 0.0
31/07:00pm 14.3 12.9 9.7 74 2.4 SE 7 11 4 6 1018.0 1018.0 0.0
31/06:30pm 14.9 14.9 9.7 71 2.7 CALM 0 7 0 4 1017.6 - 0.0
31/06:00pm 15.7 14.0 9.8 68 3.1 E 9 15 5 8 1017.2 1017.2 0.0
31/05:30pm 17.0 14.6 10.1 64 3.7 E 13 19 7 10 1016.9 - 0.0
31/05:00pm 18.5 15.4 10.3 59 4.4 E 17 26 9 14 1016.6 1016.6 0.0
31/04:30pm 19.9 16.7 9.8 52 5.4 ENE 17 22 9 12 1016.4 - 0.0
31/04:00pm 21.9 19.9 4.5 32 8.5 W 4 9 2 5 1016.3 1016.3 0.0
31/03:30pm 21.9 19.0 4.9 33 8.4 SE 9 13 5 7 1016.5 - 0.0
31/03:00pm 22.3 19.9 5.3 33 8.5 SSW 7 15 4 8 1016.6 1016.6 0.0
31/02:30pm 21.3 18.7 4.4 33 8.2 SSE 7 15 4 8 1016.9 - 0.0
31/02:00pm 21.4 18.2 4.9 34 8.1 S 11 17 6 9 1017.2 1017.2 0.0
31/01:30pm 21.0 18.7 5.8 37 7.6 NW 7 13 4 7 1017.7 - 0.0
31/01:00pm 21.3 19.6 7.5 41 7.1 WSW 6 11 3 6 1018.2 1018.2 0.0
31/12:30pm 20.1 17.8 7.5 44 6.5 WSW 9 22 5 12 1018.7 - 0.0
31/12:00pm 20.2 18.6 8.8 48 6.0 N 7 11 4 6 1019.2 1019.2 0.0
31/11:30am 19.0 17.2 7.8 48 5.7 SSW 7 11 4 6 1019.8 - 0.0
31/11:00am 18.9 17.4 8.6 51 5.3 W 6 11 3 6 1020.3 1020.4 0.0
31/10:30am 17.8 16.2 8.1 53 5.0 SSW 6 13 3 7 1020.6 - 0.0
31/10:00am 17.1 15.1 8.5 57 4.4 SW 9 17 5 9 1020.9 1021.0 0.0
31/09:30am 16.3 13.1 8.3 59 4.1 WSW 15 20 8 11 1021.3 - 0.0
31/09:00am 15.2 11.9 8.2 63 3.5 W 15 19 8 10 1021.5 1021.6 0.0
31/08:30am 14.2 10.6 8.2 67 3.0 WSW 17 24 9 13 1021.6 - 0.0
31/08:00am 13.0 8.9 7.7 70 2.6 WSW 19 28 10 15 1021.6 1021.7 0.0
31/07:30am 12.2 8.5 8.1 76 2.0 WSW 17 22 9 12 1021.4 - 0.0
31/07:00am 11.0 8.8 7.7 80 1.6 W 9 13 5 7 1021.4 1021.5 0.0
31/06:30am 10.0 8.0 7.3 83 1.3 WSW 7 11 4 6 1021.3 - 0.0
31/06:00am 10.3 8.0 7.4 82 1.4 WSW 9 13 5 7 1021.0 1021.1 0.0
31/05:30am 10.4 8.5 7.6 83 1.3 WSW 7 11 4 6 1020.8 - 0.0
31/05:00am 10.5 8.7 7.9 84 1.3 W 7 11 4 6 1020.8 1020.9 0.0
31/04:30am 10.2 7.2 7.8 85 1.2 W 13 15 7 8 1020.7 - 0.0
31/04:00am 9.5 8.9 7.4 87 1.0 CALM 0 6 0 3 1020.7 1020.8 0.0
31/03:30am 10.1 9.5 7.3 83 1.3 CALM 0 0 0 0 1020.9 - 0.0
31/03:00am 10.7 7.7 7.8 82 1.4 WSW 13 19 7 10 1021.0 1021.1 0.0
31/02:30am 10.2 8.5 7.6 84 1.2 WSW 6 9 3 5 1021.2 - 0.0
31/02:00am 10.4 9.9 7.8 84 1.3 CALM 0 0 0 0 1021.2 1021.3 0.0
31/01:30am 10.5 8.8 7.6 82 1.4 WSW 6 11 3 6 1021.5 - 0.0
31/01:00am 9.7 8.0 7.6 87 1.0 WSW 6 7 3 4 1021.7 1021.8 0.0
31/12:30am 10.5 8.2 7.4 81 1.5 SW 9 11 5 6 1021.9 - 0.0
31/12:00am 11.2 9.6 7.9 80 1.6 W 6 9 3 5 1022.1 1022.2 0.0
 
Date/Time
EST
Tmp

°C
App
Tmp
°C
Dew
Point
°C
Rel
Hum
%
Delta-T

°C
Wind Press
QNH
hPa
Press
MSL
hPa
Rain
since
9 am
mm
Dir
 
Spd
km/h
Gust
km/h
Spd
kts
Gust
kts
30/11:30pm 11.9 9.7 7.8 76 2.0 SW 9 11 5 6 1022.2 - 0.0
30/11:00pm 12.1 9.6 8.0 76 2.0 WSW 11 15 6 8 1022.3 1022.4 0.0
30/10:30pm 12.0 9.4 7.9 76 2.0 SW 11 13 6 7 1022.4 - 0.0
30/10:00pm 12.5 10.3 8.0 74 2.2 SW 9 13 5 7 1022.5 1022.6 0.0
30/09:30pm 13.3 10.9 8.6 73 2.4 SW 11 13 6 7 1022.7 - 0.0
30/09:00pm 13.5 11.1 8.6 72 2.5 SSW 11 20 6 11 1022.7 1022.8 0.0
30/08:30pm 13.7 10.9 8.5 71 2.6 SSW 13 19 7 10 1022.9 - 0.0
30/08:00pm 14.3 11.6 8.9 70 2.7 SSW 13 17 7 9 1022.8 1022.9 0.0
30/07:30pm 14.4 11.7 8.8 69 2.8 SSW 13 22 7 12 1022.7 - 0.0
30/07:00pm 14.5 12.2 8.9 69 2.8 S 11 19 6 10 1022.6 1022.7 0.0
30/06:30pm 14.9 12.2 9.1 68 3.0 S 13 17 7 9 1022.3 - 0.0
30/06:00pm 14.8 12.2 9.2 69 2.9 S 13 17 7 9 1022.2 1022.3 0.0
30/05:30pm 15.5 12.9 9.2 66 3.3 S 13 17 7 9 1022.1 - 0.0
30/05:00pm 16.1 13.9 9.5 65 3.4 S 11 15 6 8 1022.0 1022.1 0.0
30/04:30pm 16.4 13.9 9.8 65 3.5 S 13 17 7 9 1022.0 - 0.0
30/04:00pm 16.5 13.5 9.2 62 3.8 S 15 20 8 11 1022.0 1022.1 0.0
30/03:30pm 16.7 14.0 8.9 60 4.0 S 13 20 7 11 1022.0 - 0.0
30/03:00pm 18.3 14.4 9.4 56 4.7 SSW 20 28 11 15 1022.0 1022.1 0.0
30/02:30pm 16.8 13.5 9.5 62 3.8 SW 17 20 9 11 1022.4 - 0.0
30/02:00pm 16.5 11.8 9.4 63 3.7 SSW 24 33 13 18 1022.8 1022.9 0.0
30/01:30pm 16.7 12.8 9.4 62 3.8 S 20 28 11 15 1022.9 - 0.0
30/01:00pm 16.4 12.4 9.1 62 3.8 S 20 30 11 16 1023.2 1023.3 0.0
30/12:30pm 16.0 12.1 9.4 65 3.4 SSW 20 28 11 15 1023.4 - 0.0
30/12:00pm 16.2 12.3 8.7 61 3.8 S 19 32 10 17 1023.6 1023.7 0.0
30/11:30am 16.4 12.4 8.9 61 3.9 S 20 32 11 17 1023.8 - 0.0
30/11:00am 16.8 13.3 8.8 59 4.1 S 17 28 9 15 1023.9 1024.0 0.0
30/10:30am 16.4 11.9 8.4 59 4.1 SSW 22 33 12 18 1024.1 - 0.0
30/10:00am 16.1 12.1 8.1 59 4.0 SSW 19 26 10 14 1024.2 1024.3 0.0
30/09:30am 14.9 10.2 7.7 62 3.6 SSW 22 39 12 21 1024.3 - 0.0
30/09:00am 14.4 10.2 7.5 63 3.4 SW 19 28 10 15 1024.4 1024.5 0.2
30/08:30am 13.9 10.0 7.0 63 3.4 SW 17 26 9 14 1024.6 - 0.2
30/08:00am 13.2 8.7 6.8 65 3.1 SW 20 33 11 18 1024.6 1024.7 0.2
30/07:30am 12.7 8.0 6.1 64 3.1 SW 20 28 11 15 1024.6 - 0.2
30/07:00am 12.4 7.9 6.2 66 2.9 SW 19 24 10 13 1024.5 1024.6 0.2
30/06:30am 12.4 7.9 6.2 66 2.9 SW 19 26 10 14 1024.2 - 0.2
30/06:00am 12.3 8.2 6.1 66 2.9 SW 17 28 9 15 1024.0 1024.1 0.2
30/05:30am 11.9 8.1 5.8 66 2.9 SW 15 22 8 12 1023.8 - 0.2
30/05:00am 11.7 7.4 5.3 65 2.9 SW 17 22 9 12 1023.5 1023.6 0.2
30/04:30am 11.7 7.4 5.1 64 3.0 SW 17 20 9 11 1023.6 - 0.2
30/04:00am 11.7 7.4 5.1 64 3.0 SW 17 20 9 11 1023.7 1023.8 0.2
30/03:30am 11.9 7.6 5.1 63 3.1 SW 17 22 9 12 1023.6 - 0.2
30/03:00am 11.9 7.9 4.9 62 3.2 SW 15 20 8 11 1023.7 1023.8 0.2
30/02:30am 11.8 7.8 5.0 63 3.1 SW 15 22 8 12 1024.0 - 0.2
30/02:00am 11.8 7.4 5.0 63 3.1 WSW 17 24 9 13 1024.1 1024.2 0.2
30/01:30am 12.2 7.9 5.1 62 3.3 SW 17 24 9 13 1024.3 - 0.2
30/01:00am 11.9 7.1 4.9 62 3.2 SW 19 26 10 14 1024.4 1024.5 0.2
30/12:30am 11.5 7.4 4.3 61 3.3 SW 15 24 8 13 1024.5 - 0.2
30/12:00am 11.6 7.2 4.8 63 3.1 SW 17 24 9 13 1024.8 1024.9 0.2
 
Date/Time
EST
Tmp

°C
App
Tmp
°C
Dew
Point
°C
Rel
Hum
%
Delta-T

°C
Wind Press
QNH
hPa
Press
MSL
hPa
Rain
since
9 am
mm
Dir
 
Spd
km/h
Gust
km/h
Spd
kts
Gust
kts
29/11:30pm 10.5 7.7 5.1 69 2.5 SW 9 13 5 7 1025.0 - 0.2
29/11:00pm 11.2 8.0 5.3 67 2.7 S 11 13 6 7 1025.3 1025.4 0.2
29/10:30pm 11.1 8.0 5.6 69 2.5 SW 11 15 6 8 1025.2 - 0.2
29/10:00pm 11.5 8.2 6.2 70 2.5 SW 13 17 7 9 1025.4 1025.5 0.2

Latest Capital City Observations: Canberra | Sydney | Melbourne | Brisbane | Adelaide | Perth | Hobart | Darwin

Other Formats:

Comma delimited format used in spreadsheet applications
http://www.bom.gov.au/fwo/IDN60901/IDN60901.94755.axf

JavaScript Object Notation format (JSON) in row-major order
http://www.bom.gov.au/fwo/IDN60901/IDN60901.94755.json